createdAt,value
2022-11-12T00:00:53.085Z,12.10
2022-11-12T00:03:20.403Z,12.10
2022-11-12T00:05:49.362Z,12.10
2022-11-12T00:08:16.488Z,12.10
2022-11-12T00:10:43.451Z,12.00
2022-11-12T00:13:10.139Z,12.00
2022-11-12T00:15:36.870Z,11.90
2022-11-12T00:18:04.088Z,11.90
2022-11-12T00:20:30.838Z,11.90
2022-11-12T00:22:57.529Z,11.90
2022-11-12T00:25:24.508Z,11.80
2022-11-12T00:27:51.221Z,11.80
2022-11-12T00:30:18.073Z,11.80
2022-11-12T00:32:45.068Z,11.80
2022-11-12T00:35:13.884Z,11.80
2022-11-12T00:37:40.811Z,11.80
2022-11-12T00:40:09.618Z,11.70
2022-11-12T00:42:36.362Z,11.70
2022-11-12T00:45:03.322Z,11.70
2022-11-12T00:47:30.130Z,11.70
2022-11-12T00:49:56.830Z,11.70
2022-11-12T00:52:23.503Z,11.80
2022-11-12T00:54:50.357Z,11.70
2022-11-12T00:57:17.144Z,11.80
2022-11-12T00:59:43.878Z,11.70
2022-11-12T01:02:10.617Z,11.70
2022-11-12T01:04:37.342Z,11.70
2022-11-12T01:07:04.076Z,11.60
2022-11-12T01:09:31.086Z,11.80
2022-11-12T01:11:57.749Z,11.80
2022-11-12T01:14:24.466Z,11.80
2022-11-12T01:16:51.367Z,11.90
2022-11-12T01:19:18.140Z,12.00
2022-11-12T01:21:44.954Z,12.30
2022-11-12T01:24:12.006Z,12.30
2022-11-12T01:26:39.163Z,12.30
2022-11-12T01:29:06.389Z,12.30
2022-11-12T01:31:36.050Z,12.50
2022-11-12T01:34:08.983Z,12.60
2022-11-12T01:36:40.178Z,12.60
2022-11-12T01:39:08.830Z,12.60
2022-11-12T01:41:38.774Z,12.50
2022-11-12T01:44:15.128Z,12.40
2022-11-12T01:47:13.214Z,12.40
2022-11-12T01:49:56.823Z,12.40
2022-11-12T01:52:26.911Z,12.40
2022-11-12T01:54:57.051Z,12.40
2022-11-12T01:57:39.417Z,12.50
2022-11-12T02:00:10.804Z,12.50
2022-11-12T02:02:38.547Z,12.50
2022-11-12T02:05:08.654Z,12.40
2022-11-12T02:07:39.669Z,12.50
2022-11-12T02:10:08.841Z,12.60
2022-11-12T02:12:54.620Z,12.60
2022-11-12T02:15:21.255Z,12.40
2022-11-12T02:17:48.114Z,12.40
2022-11-12T02:20:15.322Z,12.50
2022-11-12T02:22:42.025Z,12.50
2022-11-12T02:25:16.519Z,12.30
2022-11-12T02:27:44.360Z,12.10
2022-11-12T02:30:12.091Z,12.20
2022-11-12T02:32:38.777Z,12.20
2022-11-12T02:35:05.883Z,12.10
2022-11-12T02:37:32.583Z,12.10
2022-11-12T02:39:59.750Z,11.90
2022-11-12T02:42:26.434Z,11.90
2022-11-12T02:44:53.298Z,11.80
2022-11-12T02:47:20.075Z,11.80
2022-11-12T02:49:46.791Z,11.80
2022-11-12T02:52:13.477Z,11.80
2022-11-12T02:54:40.555Z,11.80
2022-11-12T02:57:07.250Z,11.80
2022-11-12T02:59:33.934Z,11.80
2022-11-12T03:02:00.623Z,11.80
2022-11-12T03:04:27.268Z,11.80
2022-11-12T03:06:53.924Z,11.70
2022-11-12T03:09:20.648Z,11.70
2022-11-12T03:11:47.337Z,11.60
2022-11-12T03:14:14.375Z,11.80
2022-11-12T03:16:41.201Z,11.80
2022-11-12T03:19:08.029Z,11.80
2022-11-12T03:21:34.688Z,11.90
2022-11-12T03:24:02.496Z,12.00
2022-11-12T03:26:34.526Z,12.00
2022-11-12T03:29:02.472Z,11.80
2022-11-12T03:31:29.407Z,11.80
2022-11-12T03:33:56.245Z,11.60
2022-11-12T03:36:22.864Z,11.50
2022-11-12T03:38:49.546Z,11.40
2022-11-12T03:41:16.227Z,11.40
2022-11-12T03:43:42.919Z,11.40
2022-11-12T03:46:09.704Z,11.40
2022-11-12T03:48:36.403Z,11.40
2022-11-12T03:51:03.094Z,11.30
2022-11-12T03:53:29.781Z,11.30
2022-11-12T03:55:56.443Z,11.30
2022-11-12T03:58:23.222Z,11.20
2022-11-12T04:00:50.045Z,11.30
2022-11-12T04:03:16.854Z,11.30
2022-11-12T04:06:02.306Z,11.20
2022-11-12T04:08:38.179Z,11.10
2022-11-12T04:11:10.177Z,11.10
2022-11-12T04:13:38.474Z,11.10
2022-11-12T04:16:29.742Z,11.00
2022-11-12T04:19:16.748Z,10.90
2022-11-12T04:21:51.688Z,10.90
2022-11-12T04:24:52.551Z,10.90
2022-11-12T04:27:21.707Z,10.90
2022-11-12T04:30:07.970Z,10.90
2022-11-12T04:32:37.153Z,10.90
2022-11-12T04:35:05.221Z,10.90
2022-11-12T04:37:44.371Z,11.10
2022-11-12T04:40:35.768Z,11.10
2022-11-12T04:43:23.309Z,11.30
2022-11-12T04:45:52.572Z,11.40
2022-11-12T04:48:20.604Z,11.50
2022-11-12T04:50:50.591Z,11.50
2022-11-12T04:53:17.244Z,11.50
2022-11-12T04:55:44.009Z,11.70
2022-11-12T04:58:11.065Z,11.60
2022-11-12T05:00:37.759Z,11.50
2022-11-12T05:03:04.471Z,11.30
2022-11-12T05:05:34.023Z,11.20
2022-11-12T05:08:02.212Z,11.10
2022-11-12T05:10:29.414Z,11.10
2022-11-12T05:12:56.168Z,11.10
2022-11-12T05:15:23.037Z,10.90
2022-11-12T05:17:49.719Z,10.90
2022-11-12T05:20:18.247Z,10.80
2022-11-12T05:22:54.493Z,10.80
2022-11-12T05:25:31.783Z,10.70
2022-11-12T05:27:58.467Z,10.60
2022-11-12T05:30:25.172Z,10.50
2022-11-12T05:32:51.885Z,10.50
2022-11-12T05:35:18.531Z,10.60
2022-11-12T05:37:45.216Z,10.60
2022-11-12T05:40:12.502Z,10.60
2022-11-12T05:42:39.138Z,10.60
2022-11-12T05:45:06.635Z,10.60
2022-11-12T05:47:33.315Z,10.60
2022-11-12T05:49:59.944Z,10.50
2022-11-12T05:52:26.732Z,10.60
2022-11-12T05:54:53.395Z,10.50
2022-11-12T05:57:20.092Z,10.70
2022-11-12T05:59:46.833Z,10.70
2022-11-12T06:02:13.712Z,10.80
2022-11-12T06:04:40.491Z,10.80
2022-11-12T06:07:07.268Z,10.80
2022-11-12T06:09:34.139Z,10.90
2022-11-12T06:12:02.501Z,10.80
2022-11-12T06:14:29.206Z,10.70
2022-11-12T06:16:56.108Z,10.80
2022-11-12T06:19:22.744Z,10.70
2022-11-12T06:21:49.781Z,10.60
2022-11-12T06:24:17.026Z,10.50
2022-11-12T06:26:43.680Z,10.60
2022-11-12T06:29:10.450Z,10.50
2022-11-12T06:31:37.152Z,10.50
2022-11-12T06:34:03.848Z,10.50
2022-11-12T06:36:30.574Z,10.40
2022-11-12T06:38:57.387Z,10.30
2022-11-12T06:41:24.138Z,10.30
2022-11-12T06:43:50.773Z,10.20
2022-11-12T06:46:18.168Z,10.20
2022-11-12T06:48:44.899Z,10.30
2022-11-12T06:51:19.814Z,10.30
2022-11-12T06:53:47.310Z,10.50
2022-11-12T06:56:14.641Z,10.60
2022-11-12T06:58:42.108Z,10.40
2022-11-12T07:01:14.665Z,10.20
2022-11-12T07:03:42.280Z,10.10
2022-11-12T07:06:11.907Z,10.20
2022-11-12T07:08:39.452Z,10.10
2022-11-12T07:11:06.921Z,10.00
2022-11-12T07:13:35.515Z,9.90
2022-11-12T07:16:03.910Z,9.90
2022-11-12T07:18:30.821Z,10.00
2022-11-12T07:21:01.942Z,10.00
2022-11-12T07:23:31.389Z,10.00
2022-11-12T07:26:07.141Z,10.00
2022-11-12T07:28:34.213Z,10.00
2022-11-12T07:31:03.227Z,10.00
2022-11-12T07:33:30.938Z,10.10
2022-11-12T07:36:02.507Z,10.10
2022-11-12T07:38:30.659Z,10.20
2022-11-12T07:41:06.386Z,10.20
2022-11-12T07:43:34.844Z,10.20
2022-11-12T07:46:11.168Z,10.20
2022-11-12T07:48:38.899Z,10.30
2022-11-12T07:51:07.891Z,10.30
2022-11-12T07:53:34.590Z,10.40
2022-11-12T07:56:02.250Z,10.50
2022-11-12T07:58:31.878Z,10.70
2022-11-12T08:00:59.359Z,11.00
2022-11-12T08:03:26.525Z,11.20
2022-11-12T08:05:53.428Z,11.30
2022-11-12T08:08:20.126Z,11.40
2022-11-12T08:10:46.762Z,11.60
2022-11-12T08:13:13.480Z,11.70
2022-11-12T08:15:40.146Z,11.80
2022-11-12T08:18:06.896Z,11.90
2022-11-12T08:20:33.738Z,12.10
2022-11-12T08:23:01.028Z,12.20
2022-11-12T08:25:28.177Z,12.10
2022-11-12T08:27:59.388Z,12.20
2022-11-12T08:30:27.530Z,12.40
2022-11-12T08:33:03.235Z,12.40
2022-11-12T08:35:31.105Z,12.40
2022-11-12T08:38:07.792Z,12.60
2022-11-12T08:40:35.473Z,12.50
2022-11-12T08:43:10.210Z,12.50
2022-11-12T08:45:40.234Z,12.50
2022-11-12T08:48:13.858Z,12.60
2022-11-12T08:50:41.589Z,12.60
2022-11-12T08:53:11.136Z,12.80
2022-11-12T08:55:38.581Z,12.90
2022-11-12T08:58:06.263Z,13.10
2022-11-12T09:00:35.704Z,13.20
2022-11-12T09:03:04.469Z,13.30
2022-11-12T09:05:31.523Z,13.40
2022-11-12T09:07:59.554Z,13.60
2022-11-12T09:10:27.942Z,13.60
2022-11-12T09:12:55.413Z,13.60
2022-11-12T09:15:36.794Z,13.70
2022-11-12T09:18:07.501Z,13.70
2022-11-12T09:20:34.610Z,13.70
2022-11-12T09:23:04.746Z,13.70
2022-11-12T09:25:31.842Z,13.80
2022-11-12T09:27:58.509Z,13.90
2022-11-12T09:30:25.251Z,13.70
2022-11-12T09:32:58.044Z,13.40
2022-11-12T09:35:24.835Z,13.40
2022-11-12T09:37:51.543Z,13.30
2022-11-12T09:40:19.745Z,13.50
2022-11-12T09:42:55.932Z,13.60
2022-11-12T09:45:32.630Z,13.50
2022-11-12T09:48:05.595Z,13.50
2022-11-12T09:50:37.961Z,13.30
2022-11-12T09:53:38.011Z,13.20
2022-11-12T09:56:10.730Z,13.20
2022-11-12T09:58:37.666Z,13.40
2022-11-12T10:01:17.097Z,13.40
2022-11-12T10:03:55.893Z,13.30
2022-11-12T10:06:27.876Z,13.30
2022-11-12T10:09:13.765Z,13.40
2022-11-12T10:12:05.490Z,13.50
2022-11-12T10:14:34.917Z,13.50
2022-11-12T10:17:32.128Z,13.70
2022-11-12T10:20:20.923Z,14.10
2022-11-12T10:23:04.835Z,14.30
2022-11-12T10:25:32.388Z,14.30
2022-11-12T10:28:01.967Z,14.10
2022-11-12T10:30:28.791Z,14.10
2022-11-12T10:32:55.535Z,14.50
2022-11-12T10:35:23.828Z,14.70
2022-11-12T10:38:04.526Z,14.90
2022-11-12T10:40:38.470Z,15.00
2022-11-12T10:43:17.559Z,15.20
2022-11-12T10:45:45.836Z,15.40
2022-11-12T10:48:27.607Z,15.60
2022-11-12T10:50:55.055Z,15.80
2022-11-12T10:53:48.214Z,15.80
2022-11-12T10:56:28.363Z,15.90
2022-11-12T10:59:15.353Z,16.00
2022-11-12T11:01:45.903Z,16.20
2022-11-12T11:04:22.679Z,16.40
2022-11-12T11:06:58.568Z,16.60
2022-11-12T11:09:26.154Z,16.80
2022-11-12T11:11:54.132Z,17.00
2022-11-12T11:14:23.850Z,16.90
2022-11-12T11:16:55.091Z,16.80
2022-11-12T11:19:22.009Z,17.30
2022-11-12T11:21:48.665Z,17.40
2022-11-12T11:24:47.913Z,17.20
2022-11-12T11:27:40.912Z,16.80
2022-11-12T11:30:18.149Z,16.40
2022-11-12T11:33:13.880Z,16.50
2022-11-12T11:36:16.251Z,16.60
2022-11-12T11:39:01.310Z,17.00
2022-11-12T11:41:49.097Z,17.00
2022-11-12T11:44:33.766Z,17.10
2022-11-12T11:47:12.593Z,16.70
2022-11-12T11:50:19.285Z,16.70
2022-11-12T11:53:33.586Z,16.60
2022-11-12T11:56:13.153Z,16.30
2022-11-12T11:59:02.873Z,16.20
2022-11-12T12:01:50.319Z,16.10
2022-11-12T12:04:44.881Z,16.20
2022-11-12T12:07:38.900Z,16.40
2022-11-12T12:10:11.958Z,16.40
2022-11-12T12:13:05.199Z,16.60
2022-11-12T12:15:54.361Z,16.70
2022-11-12T12:18:48.229Z,17.00
2022-11-12T12:21:17.821Z,17.10
2022-11-12T12:24:09.624Z,17.20
2022-11-12T12:26:54.020Z,17.40
2022-11-12T12:29:28.778Z,17.50
2022-11-12T12:32:37.274Z,17.80
2022-11-12T12:35:23.622Z,18.10
2022-11-12T12:38:11.138Z,19.10
2022-11-12T12:40:44.841Z,19.70
2022-11-12T12:43:22.450Z,19.70
2022-11-12T12:45:49.254Z,19.30
2022-11-12T12:48:20.186Z,19.00
2022-11-12T12:50:48.483Z,18.70
2022-11-12T12:53:15.204Z,18.70
2022-11-12T12:55:43.114Z,18.70
2022-11-12T12:58:33.168Z,18.70
2022-11-12T13:01:14.311Z,18.40
2022-11-12T13:03:44.149Z,18.10
2022-11-12T13:06:22.828Z,17.70
2022-11-12T13:08:56.680Z,17.40
2022-11-12T13:11:59.767Z,17.20
2022-11-12T13:14:49.836Z,17.00
2022-11-12T13:17:44.149Z,16.80
2022-11-12T13:20:18.391Z,16.60
2022-11-12T13:22:45.018Z,16.40
2022-11-12T13:25:11.650Z,16.10
2022-11-12T13:27:44.462Z,15.90
2022-11-12T13:30:14.001Z,15.80
2022-11-12T13:32:47.263Z,15.70
2022-11-12T13:35:22.598Z,15.80
2022-11-12T13:37:52.094Z,15.80
2022-11-12T13:40:30.646Z,15.70
2022-11-12T13:43:16.893Z,15.50
2022-11-12T13:46:11.086Z,15.60
2022-11-12T13:48:58.154Z,15.50
2022-11-12T13:51:34.137Z,15.30
2022-11-12T13:54:01.844Z,15.40
2022-11-12T13:56:31.661Z,15.40
2022-11-12T13:59:15.886Z,15.20
2022-11-12T14:01:43.580Z,15.10
2022-11-12T14:04:26.861Z,15.10
2022-11-12T14:07:24.331Z,15.10
2022-11-12T14:09:59.885Z,15.00
2022-11-12T14:12:50.851Z,15.00
2022-11-12T14:15:55.522Z,15.00
2022-11-12T14:18:43.335Z,15.00
2022-11-12T14:21:18.090Z,15.00
2022-11-12T14:23:47.584Z,15.10
2022-11-12T14:26:32.964Z,15.10
2022-11-12T14:29:00.096Z,15.10
2022-11-12T14:31:26.774Z,15.00
2022-11-12T14:33:53.461Z,15.00
2022-11-12T14:36:20.953Z,14.90
2022-11-12T14:38:58.893Z,14.90
2022-11-12T14:41:35.178Z,15.00
2022-11-12T14:44:13.044Z,15.10
2022-11-12T14:46:49.837Z,15.10
2022-11-12T14:49:40.632Z,15.00
2022-11-12T14:52:20.857Z,15.20
2022-11-12T14:54:54.828Z,15.40
2022-11-12T14:57:27.806Z,15.40
2022-11-12T14:59:55.663Z,15.20
2022-11-12T15:02:42.289Z,15.10
2022-11-12T15:05:16.995Z,14.90
2022-11-12T15:08:03.603Z,14.90
2022-11-12T15:10:34.978Z,15.00
2022-11-12T15:13:15.583Z,14.90
2022-11-12T15:16:11.773Z,15.00
2022-11-12T15:18:39.768Z,14.90
2022-11-12T15:21:12.747Z,14.70
2022-11-12T15:23:50.882Z,14.70
2022-11-12T15:26:31.447Z,14.60
2022-11-12T15:28:59.998Z,14.50
2022-11-12T15:31:26.681Z,14.40
2022-11-12T15:33:53.585Z,14.40
2022-11-12T15:36:22.592Z,14.30
2022-11-12T15:38:54.173Z,14.40
2022-11-12T15:41:28.064Z,14.40
2022-11-12T15:43:55.145Z,14.40
2022-11-12T15:46:22.194Z,14.20
2022-11-12T15:48:54.536Z,14.40
2022-11-12T15:51:22.669Z,14.40
2022-11-12T15:53:49.310Z,14.20
2022-11-12T15:56:19.181Z,14.20
2022-11-12T15:58:45.968Z,14.30
2022-11-12T16:01:12.866Z,14.30
2022-11-12T16:03:39.801Z,14.20
2022-11-12T16:06:09.293Z,14.20
2022-11-12T16:08:36.330Z,14.10
2022-11-12T16:11:03.484Z,14.10
2022-11-12T16:13:36.072Z,14.20
2022-11-12T16:16:06.252Z,14.30
2022-11-12T16:18:32.967Z,14.30
2022-11-12T16:20:59.625Z,14.30
2022-11-12T16:23:26.494Z,14.40
2022-11-12T16:25:53.414Z,14.50
2022-11-12T16:28:20.326Z,14.50
2022-11-12T16:30:47.863Z,14.50
2022-11-12T16:33:14.651Z,14.40
2022-11-12T16:35:41.919Z,14.40
2022-11-12T16:38:16.416Z,14.50
2022-11-12T16:40:44.626Z,14.50
2022-11-12T16:43:11.774Z,14.50
2022-11-12T16:45:40.860Z,14.50
2022-11-12T16:48:17.172Z,14.50
2022-11-12T16:50:43.895Z,14.40
2022-11-12T16:53:10.624Z,14.30
2022-11-12T16:55:37.386Z,14.30
2022-11-12T16:58:04.028Z,14.30
2022-11-12T17:00:30.854Z,14.40
2022-11-12T17:02:57.846Z,14.30
2022-11-12T17:05:25.788Z,14.30
2022-11-12T17:07:57.162Z,14.30
2022-11-12T17:10:24.254Z,14.40
2022-11-12T17:12:53.998Z,14.40
2022-11-12T17:15:20.853Z,14.40
2022-11-12T17:17:47.756Z,14.30
2022-11-12T17:20:14.449Z,14.20
2022-11-12T17:22:41.138Z,14.30
2022-11-12T17:25:08.538Z,14.20
2022-11-12T17:27:35.351Z,14.20
2022-11-12T17:30:03.110Z,14.20
2022-11-12T17:32:30.107Z,14.20
2022-11-12T17:34:56.906Z,14.20
2022-11-12T17:37:23.660Z,14.20
2022-11-12T17:39:50.786Z,14.20
2022-11-12T17:42:17.428Z,14.20
2022-11-12T17:44:46.161Z,14.20
2022-11-12T17:47:12.902Z,14.10
2022-11-12T17:49:39.644Z,14.10
2022-11-12T17:52:06.288Z,14.10
2022-11-12T17:54:33.274Z,14.00
2022-11-12T17:57:00.036Z,14.00
2022-11-12T17:59:26.668Z,14.00
2022-11-12T18:01:53.376Z,14.00
2022-11-12T18:04:23.386Z,14.00
2022-11-12T18:06:50.490Z,13.90
2022-11-12T18:09:17.394Z,13.90
2022-11-12T18:11:50.230Z,13.90
2022-11-12T18:14:17.024Z,13.90
2022-11-12T18:16:44.192Z,14.00
2022-11-12T18:19:11.272Z,13.90
2022-11-12T18:21:39.828Z,14.00
2022-11-12T18:24:11.729Z,13.90
2022-11-12T18:26:39.018Z,13.90
2022-11-12T18:29:05.740Z,13.90
2022-11-12T18:31:32.650Z,13.80
2022-11-12T18:33:59.306Z,13.80
2022-11-12T18:36:26.664Z,13.70
2022-11-12T18:38:54.646Z,13.70
2022-11-12T18:41:26.830Z,13.60
2022-11-12T18:43:54.758Z,13.70
2022-11-12T18:46:22.486Z,13.60
2022-11-12T18:48:49.934Z,13.60
2022-11-12T18:51:18.461Z,13.60
2022-11-12T18:53:46.213Z,13.50
2022-11-12T18:56:20.323Z,13.40
2022-11-12T18:58:47.761Z,13.40
2022-11-12T19:01:16.765Z,13.50
2022-11-12T19:03:44.084Z,13.50
2022-11-12T19:06:14.710Z,13.50
2022-11-12T19:08:41.808Z,13.50
2022-11-12T19:11:11.252Z,13.50
2022-11-12T19:13:38.640Z,13.50
2022-11-12T19:16:08.007Z,13.50
2022-11-12T19:18:34.823Z,13.40
2022-11-12T19:21:07.042Z,13.50
2022-11-12T19:23:34.041Z,13.50
2022-11-12T19:26:01.757Z,13.50
2022-11-12T19:28:29.195Z,13.40
2022-11-12T19:30:56.216Z,13.40
2022-11-12T19:33:23.421Z,13.40
2022-11-12T19:35:50.165Z,13.30
2022-11-12T19:38:16.849Z,13.30
2022-11-12T19:40:43.502Z,13.20
2022-11-12T19:43:10.298Z,13.20
2022-11-12T19:45:36.975Z,13.10
2022-11-12T19:48:04.374Z,13.00
2022-11-12T19:50:33.257Z,13.00
2022-11-12T19:53:00.358Z,13.00
2022-11-12T19:55:28.975Z,12.90
2022-11-12T19:57:55.810Z,12.90
2022-11-12T20:00:22.552Z,12.90
2022-11-12T20:02:49.365Z,12.80
2022-11-12T20:05:16.335Z,12.80
2022-11-12T20:07:43.148Z,12.70
2022-11-12T20:10:10.034Z,12.70
2022-11-12T20:12:38.902Z,12.60
2022-11-12T20:15:06.384Z,12.60
2022-11-12T20:17:33.611Z,12.60
2022-11-12T20:20:00.739Z,12.60
2022-11-12T20:22:32.322Z,12.60
2022-11-12T20:24:59.513Z,12.50
2022-11-12T20:27:26.509Z,12.60
2022-11-12T20:29:53.231Z,12.60
2022-11-12T20:32:21.788Z,12.50
2022-11-12T20:34:48.616Z,12.50
2022-11-12T20:37:15.265Z,12.50
2022-11-12T20:39:41.925Z,12.50
2022-11-12T20:42:08.626Z,12.60
2022-11-12T20:44:35.340Z,12.60
2022-11-12T20:47:02.074Z,12.70
2022-11-12T20:49:28.838Z,12.70
2022-11-12T20:51:55.456Z,12.60
2022-11-12T20:54:22.176Z,12.50
2022-11-12T20:56:50.632Z,12.40
2022-11-12T20:59:17.367Z,12.50
2022-11-12T21:01:44.234Z,12.40
2022-11-12T21:04:12.428Z,12.40
2022-11-12T21:06:39.271Z,12.40
2022-11-12T21:09:06.551Z,12.30
2022-11-12T21:11:33.591Z,12.20
2022-11-12T21:14:01.096Z,12.20
2022-11-12T21:16:27.852Z,12.10
2022-11-12T21:18:54.598Z,12.10
2022-11-12T21:21:21.625Z,12.10
2022-11-12T21:23:51.447Z,12.10
2022-11-12T21:26:22.846Z,12.00
2022-11-12T21:28:54.562Z,12.00
2022-11-12T21:31:27.230Z,12.00
2022-11-12T21:33:58.131Z,12.00
2022-11-12T21:36:27.592Z,12.00
2022-11-12T21:38:54.435Z,12.00
2022-11-12T21:41:23.466Z,12.00
2022-11-12T21:43:50.733Z,11.90
2022-11-12T21:46:18.907Z,11.90
2022-11-12T21:48:49.002Z,12.00
2022-11-12T21:51:22.338Z,11.90
2022-11-12T21:53:57.194Z,11.90
2022-11-12T21:56:25.072Z,12.00
2022-11-12T21:58:53.695Z,12.10
2022-11-12T22:01:23.030Z,12.10
2022-11-12T22:03:51.290Z,12.10
2022-11-12T22:06:19.392Z,12.10
2022-11-12T22:08:46.572Z,12.10
2022-11-12T22:11:16.156Z,12.00
2022-11-12T22:13:42.945Z,12.00
2022-11-12T22:16:20.969Z,12.10
2022-11-12T22:18:49.833Z,12.20
2022-11-12T22:21:19.465Z,12.20
2022-11-12T22:23:46.461Z,12.20
2022-11-12T22:26:16.059Z,12.20
2022-11-12T22:28:42.935Z,12.20
2022-11-12T22:31:24.426Z,12.40
2022-11-12T22:33:51.113Z,12.20
2022-11-12T22:36:20.887Z,12.20
2022-11-12T22:38:49.871Z,12.20
2022-11-12T22:41:22.214Z,12.20
2022-11-12T22:43:55.816Z,12.30
2022-11-12T22:46:24.900Z,12.30
2022-11-12T22:48:52.148Z,12.30
2022-11-12T22:51:23.729Z,12.30
2022-11-12T22:53:55.119Z,12.30
2022-11-12T22:56:22.519Z,12.30
2022-11-12T22:58:49.467Z,12.30
2022-11-12T23:01:29.167Z,12.20
2022-11-12T23:03:58.609Z,12.30
2022-11-12T23:06:26.672Z,12.30
2022-11-12T23:08:54.386Z,12.30
2022-11-12T23:11:21.792Z,12.20
2022-11-12T23:13:49.179Z,12.20
2022-11-12T23:16:18.699Z,12.20
2022-11-12T23:18:45.756Z,12.30
2022-11-12T23:21:18.059Z,12.30
2022-11-12T23:23:45.044Z,12.30
2022-11-12T23:26:21.020Z,12.30
2022-11-12T23:28:47.943Z,12.20
2022-11-12T23:31:20.646Z,12.30
2022-11-12T23:33:50.092Z,12.30
2022-11-12T23:36:17.617Z,12.30
2022-11-12T23:38:44.889Z,12.30
2022-11-12T23:41:14.375Z,12.30
2022-11-12T23:43:41.050Z,12.40
2022-11-12T23:46:08.032Z,12.40
2022-11-12T23:48:34.745Z,12.30
2022-11-12T23:51:13.342Z,12.30
2022-11-12T23:53:40.909Z,12.30
2022-11-12T23:56:09.939Z,12.30
2022-11-12T23:58:38.390Z,12.40
